KJWN

John C Tune Airport

Nashville, Tennessee, USA
METAR KJWN 240115Z AUTO 01004KT 10SM CLR 25/19 A3007 RMK A01
Observed Flight Rules
May-24 @ 01:15 UTC (34 minutes ago) Visual Flight Rules
Wind Visibility Clouds
10° at 4 knots 10 miles
  • Clear skies
Temperatures Readings
Current 25°C / 77°F
Dewpoint 19°C / 66°F
Humidity 69%
Altimeter 30.07" Hg
Pressure 1018 hPa
Elevation 151
METAR KJWN 240115Z AUTO 01004KT 10SM CLR 25/19 A3007 RMK A01
Observed Flight Rules
May-24 @ 01:15 UTC
(34 minutes ago)
VFR
Wind Visibility
10° at 4 knots 10 miles
Clouds
  • Clear skies
Temperature Dewpoint
25°C / 77°F 19°C / 66°F
Humidity Altimeter Pressure
69% 30.07" Hg 1018 hPa